DESTH EDFE-EDDS
Flight info
| Callsign | DESTH |
|---|---|
| Flight time | N/A |
| Altitude | 9000 |
| Route | FKS/N0162F090 IFR Y163 NEKLO Y171 INKAM N850 KRH T128 BADSO |
| Aircraft | PA24/L-SDGRY/S |
Departure
| Time | 2026-04-26 09:21 |
|---|---|
| Airport | Frankfurt-Egelsbach Airport (EDFE) |
Arrival
| Time | N/A |
|---|---|
| Airport | Stuttgart Airport (EDDS) |
| Time | Latitude | Longitude | Altitude | Speed | Heading |
|---|---|---|---|---|---|
| 2026-04-26 09:03 | 49.96240 | 8.64282 | 383 ft | 0 kts | 265° |
| 2026-04-26 09:15 | 49.96240 | 8.64281 | 383 ft | 0 kts | 265° |
| 2026-04-26 09:16 | 49.96222 | 8.64257 | 383 ft | 10 kts | 180° |
| 2026-04-26 09:16 | 49.96184 | 8.64262 | 384 ft | 4 kts | 179° |
| 2026-04-26 09:16 | 49.96167 | 8.64177 | 385 ft | 16 kts | 265° |
| 2026-04-26 09:16 | 49.96160 | 8.64033 | 383 ft | 11 kts | 265° |
| 2026-04-26 09:17 | 49.96153 | 8.63879 | 378 ft | 19 kts | 265° |
| 2026-04-26 09:17 | 49.96143 | 8.63646 | 376 ft | 24 kts | 266° |
| 2026-04-26 09:17 | 49.96130 | 8.63422 | 370 ft | 17 kts | 266° |
| 2026-04-26 09:17 | 49.96122 | 8.63269 | 369 ft | 7 kts | 256° |
| 2026-04-26 09:18 | 49.96100 | 8.63229 | 370 ft | 0 kts | 223° |
| 2026-04-26 09:19 | 49.96099 | 8.63227 | 369 ft | 0 kts | 221° |
| 2026-04-26 09:20 | 49.96071 | 8.63191 | 369 ft | 10 kts | 220° |
| 2026-04-26 09:20 | 49.96038 | 8.63218 | 369 ft | 11 kts | 85° |
| 2026-04-26 09:21 | 49.96059 | 8.63776 | 404 ft | 77 kts | 78° |
| 2026-04-26 09:21 | 49.96062 | 8.64635 | 623 ft | 83 kts | 84° |
| 2026-04-26 09:21 | 49.96046 | 8.65606 | 915 ft | 91 kts | 85° |
| 2026-04-26 09:21 | 49.96047 | 8.66591 | 1256 ft | 90 kts | 83° |
| 2026-04-26 09:22 | 49.96062 | 8.67601 | 1488 ft | 94 kts | 84° |
| 2026-04-26 09:22 | 49.95837 | 8.68509 | 1425 ft | 98 kts | 145° |
| 2026-04-26 09:22 | 49.95155 | 8.68849 | 1338 ft | 105 kts | 165° |
| 2026-04-26 09:22 | 49.94432 | 8.69082 | 1320 ft | 106 kts | 166° |
| 2026-04-26 09:23 | 49.93711 | 8.69326 | 1311 ft | 108 kts | 163° |
| 2026-04-26 09:23 | 49.93011 | 8.69628 | 1362 ft | 103 kts | 162° |
| 2026-04-26 09:23 | 49.92284 | 8.69865 | 1306 ft | 109 kts | 169° |
| 2026-04-26 09:23 | 49.91536 | 8.69990 | 1289 ft | 110 kts | 175° |
| 2026-04-26 09:24 | 49.90779 | 8.69775 | 1283 ft | 112 kts | 202° |
| 2026-04-26 09:24 | 49.90192 | 8.68974 | 1271 ft | 114 kts | 232° |
| 2026-04-26 09:24 | 49.89654 | 8.68120 | 1308 ft | 110 kts | 224° |
| 2026-04-26 09:24 | 49.89120 | 8.67293 | 1332 ft | 108 kts | 226° |
| 2026-04-26 09:25 | 49.88566 | 8.66500 | 1321 ft | 108 kts | 223° |
| 2026-04-26 09:25 | 49.88022 | 8.65713 | 1331 ft | 106 kts | 224° |
| 2026-04-26 09:25 | 49.87451 | 8.64965 | 1315 ft | 109 kts | 219° |
| 2026-04-26 09:25 | 49.86820 | 8.64301 | 1329 ft | 111 kts | 212° |
| 2026-04-26 09:26 | 49.86197 | 8.63638 | 1367 ft | 108 kts | 220° |
| 2026-04-26 09:26 | 49.85624 | 8.62871 | 1394 ft | 110 kts | 223° |
| 2026-04-26 09:26 | 49.85057 | 8.62069 | 1584 ft | 113 kts | 222° |
| 2026-04-26 09:26 | 49.84460 | 8.61261 | 1956 ft | 112 kts | 220° |
| 2026-04-26 09:27 | 49.83871 | 8.60492 | 2347 ft | 114 kts | 220° |
| 2026-04-26 09:27 | 49.83267 | 8.59697 | 2726 ft | 114 kts | 219° |
| 2026-04-26 09:27 | 49.82670 | 8.58906 | 3095 ft | 111 kts | 219° |
| 2026-04-26 09:27 | 49.82070 | 8.58143 | 3414 ft | 113 kts | 219° |
| 2026-04-26 09:28 | 49.81460 | 8.57386 | 3766 ft | 112 kts | 219° |
| 2026-04-26 09:28 | 49.80860 | 8.56659 | 4131 ft | 110 kts | 219° |
| 2026-04-26 09:28 | 49.80264 | 8.55978 | 4504 ft | 106 kts | 217° |
| 2026-04-26 09:28 | 49.79659 | 8.55306 | 4815 ft | 109 kts | 218° |
| 2026-04-26 09:29 | 49.79047 | 8.54626 | 5156 ft | 108 kts | 217° |
| 2026-04-26 09:29 | 49.78409 | 8.53960 | 5443 ft | 112 kts | 218° |
| 2026-04-26 09:29 | 49.77757 | 8.53364 | 5734 ft | 110 kts | 199° |
| 2026-04-26 09:29 | 49.76977 | 8.53351 | 5994 ft | 116 kts | 176° |
| 2026-04-26 09:30 | 49.76157 | 8.53430 | 6303 ft | 118 kts | 178° |
| 2026-04-26 09:30 | 49.75335 | 8.53482 | 6589 ft | 119 kts | 182° |
| 2026-04-26 09:30 | 49.74508 | 8.53521 | 6858 ft | 119 kts | 180° |
| 2026-04-26 09:30 | 49.73682 | 8.53524 | 7114 ft | 120 kts | 186° |
| 2026-04-26 09:31 | 49.72856 | 8.53458 | 7356 ft | 121 kts | 185° |
| 2026-04-26 09:31 | 49.72023 | 8.53508 | 7647 ft | 118 kts | 179° |
| 2026-04-26 09:31 | 49.71204 | 8.53568 | 7877 ft | 121 kts | 180° |
| 2026-04-26 09:31 | 49.70354 | 8.53611 | 8137 ft | 120 kts | 181° |
| 2026-04-26 09:32 | 49.69511 | 8.53652 | 8369 ft | 123 kts | 181° |
| 2026-04-26 09:32 | 49.68656 | 8.53693 | 8617 ft | 122 kts | 181° |
| 2026-04-26 09:32 | 49.67801 | 8.53707 | 8846 ft | 124 kts | 184° |
| 2026-04-26 09:32 | 49.66933 | 8.53656 | 9083 ft | 125 kts | 187° |
| 2026-04-26 09:33 | 49.66062 | 8.53539 | 9281 ft | 130 kts | 190° |
| 2026-04-26 09:33 | 49.65130 | 8.53334 | 9264 ft | 143 kts | 193° |
| 2026-04-26 09:33 | 49.64129 | 8.53028 | 9261 ft | 151 kts | 195° |
| 2026-04-26 09:33 | 49.63074 | 8.52686 | 9265 ft | 158 kts | 195° |
| 2026-04-26 09:34 | 49.61975 | 8.52362 | 9249 ft | 163 kts | 193° |
| 2026-04-26 09:34 | 49.60852 | 8.52099 | 9253 ft | 165 kts | 190° |
| 2026-04-26 09:34 | 49.59702 | 8.51915 | 9258 ft | 167 kts | 187° |
| 2026-04-26 09:34 | 49.58538 | 8.51801 | 9259 ft | 168 kts | 185° |
| 2026-04-26 09:35 | 49.57369 | 8.51735 | 9256 ft | 168 kts | 184° |
| 2026-04-26 09:35 | 49.56196 | 8.51682 | 9258 ft | 169 kts | 184° |
| 2026-04-26 09:35 | 49.55020 | 8.51611 | 9257 ft | 169 kts | 185° |
| 2026-04-26 09:35 | 49.53862 | 8.51504 | 9257 ft | 169 kts | 186° |
| 2026-04-26 09:36 | 49.52692 | 8.51352 | 9256 ft | 169 kts | 188° |
| 2026-04-26 09:36 | 49.51520 | 8.51150 | 9257 ft | 170 kts | 189° |
| 2026-04-26 09:36 | 49.50353 | 8.50915 | 9256 ft | 169 kts | 190° |
| 2026-04-26 09:36 | 49.49187 | 8.50673 | 9257 ft | 169 kts | 190° |